sensor_id;sensor_type;location;lat;lon;timestamp;temperature;humidity
21612;DHT22;47005;52.292;13.452;2023-02-15T00:01:54;6.20;99.90
21612;DHT22;47005;52.292;13.452;2023-02-15T00:04:21;6.10;99.90
21612;DHT22;47005;52.292;13.452;2023-02-15T00:06:47;6.10;99.90
21612;DHT22;47005;52.292;13.452;2023-02-15T00:09:13;6.10;99.90
21612;DHT22;47005;52.292;13.452;2023-02-15T00:11:39;6.10;99.90
21612;DHT22;47005;52.292;13.452;2023-02-15T00:16:34;6.00;99.90
21612;DHT22;47005;52.292;13.452;2023-02-15T00:19:00;5.90;99.90
21612;DHT22;47005;52.292;13.452;2023-02-15T00:21:28;5.90;99.90
21612;DHT22;47005;52.292;13.452;2023-02-15T00:23:55;5.90;99.90
21612;DHT22;47005;52.292;13.452;2023-02-15T00:26:21;5.90;99.90
21612;DHT22;47005;52.292;13.452;2023-02-15T00:28:47;5.90;99.90
21612;DHT22;47005;52.292;13.452;2023-02-15T00:31:13;5.90;99.90
21612;DHT22;47005;52.292;13.452;2023-02-15T00:33:39;5.80;99.90
21612;DHT22;47005;52.292;13.452;2023-02-15T00:36:07;5.80;99.90
21612;DHT22;47005;52.292;13.452;2023-02-15T00:38:33;5.70;99.90
21612;DHT22;47005;52.292;13.452;2023-02-15T00:41:00;5.70;99.90
21612;DHT22;47005;52.292;13.452;2023-02-15T00:43:27;5.60;99.90
21612;DHT22;47005;52.292;13.452;2023-02-15T00:45:53;5.60;99.90
21612;DHT22;47005;52.292;13.452;2023-02-15T00:48:20;5.60;99.90
21612;DHT22;47005;52.292;13.452;2023-02-15T00:50:48;5.60;99.90
21612;DHT22;47005;52.292;13.452;2023-02-15T00:53:13;5.50;99.90
21612;DHT22;47005;52.292;13.452;2023-02-15T00:55:39;5.50;99.90
21612;DHT22;47005;52.292;13.452;2023-02-15T00:58:06;5.50;99.90
21612;DHT22;47005;52.292;13.452;2023-02-15T01:00:32;5.50;99.90
21612;DHT22;47005;52.292;13.452;2023-02-15T01:02:58;5.40;99.90
21612;DHT22;47005;52.292;13.452;2023-02-15T01:05:23;5.40;99.90
21612;DHT22;47005;52.292;13.452;2023-02-15T01:07:49;5.30;99.90
21612;DHT22;47005;52.292;13.452;2023-02-15T01:10:15;5.30;99.90
21612;DHT22;47005;52.292;13.452;2023-02-15T01:12:40;5.30;99.90
21612;DHT22;47005;52.292;13.452;2023-02-15T01:15:06;5.20;99.90
21612;DHT22;47005;52.292;13.452;2023-02-15T01:17:32;5.20;99.90
21612;DHT22;47005;52.292;13.452;2023-02-15T01:19:58;5.20;99.90
21612;DHT22;47005;52.292;13.452;2023-02-15T01:22:24;5.20;99.90
21612;DHT22;47005;52.292;13.452;2023-02-15T01:24:50;5.10;99.90
21612;DHT22;47005;52.292;13.452;2023-02-15T01:27:16;5.10;99.90
21612;DHT22;47005;52.292;13.452;2023-02-15T01:29:42;5.10;99.90
21612;DHT22;47005;52.292;13.452;2023-02-15T01:32:07;5.10;99.90
21612;DHT22;47005;52.292;13.452;2023-02-15T01:34:33;5.10;99.90
21612;DHT22;47005;52.292;13.452;2023-02-15T01:36:59;5.00;99.90
21612;DHT22;47005;52.292;13.452;2023-02-15T01:39:24;5.00;99.90
21612;DHT22;47005;52.292;13.452;2023-02-15T01:41:50;5.00;99.90
21612;DHT22;47005;52.292;13.452;2023-02-15T01:47:10;5.00;99.90
21612;DHT22;47005;52.292;13.452;2023-02-15T01:49:36;4.90;99.90
21612;DHT22;47005;52.292;13.452;2023-02-15T01:52:03;4.90;99.90
21612;DHT22;47005;52.292;13.452;2023-02-15T01:54:32;4.90;99.90
21612;DHT22;47005;52.292;13.452;2023-02-15T01:57:02;4.90;99.90
21612;DHT22;47005;52.292;13.452;2023-02-15T01:59:28;4.90;99.90
21612;DHT22;47005;52.292;13.452;2023-02-15T02:01:58;4.90;99.90
21612;DHT22;47005;52.292;13.452;2023-02-15T02:04:31;4.80;99.90
21612;DHT22;47005;52.292;13.452;2023-02-15T02:06:59;4.80;99.90
21612;DHT22;47005;52.292;13.452;2023-02-15T02:09:25;4.80;99.90
21612;DHT22;47005;52.292;13.452;2023-02-15T02:11:51;4.80;99.90
21612;DHT22;47005;52.292;13.452;2023-02-15T02:14:19;4.80;99.90
21612;DHT22;47005;52.292;13.452;2023-02-15T02:16:53;4.80;99.90
21612;DHT22;47005;52.292;13.452;2023-02-15T02:22:32;4.70;99.90
21612;DHT22;47005;52.292;13.452;2023-02-15T02:30:55;4.70;99.90
21612;DHT22;47005;52.292;13.452;2023-02-15T02:36:40;4.60;99.90
21612;DHT22;47005;52.292;13.452;2023-02-15T02:44:54;4.50;99.90
21612;DHT22;47005;52.292;13.452;2023-02-15T02:47:37;4.50;99.90
21612;DHT22;47005;52.292;13.452;2023-02-15T02:50:12;4.50;99.90
21612;DHT22;47005;52.292;13.452;2023-02-15T03:05:47;4.30;99.90
21612;DHT22;47005;52.292;13.452;2023-02-15T03:08:16;4.30;99.90
21612;DHT22;47005;52.292;13.452;2023-02-15T03:10:48;4.30;99.90
21612;DHT22;47005;52.292;13.452;2023-02-15T03:13:14;4.20;99.90
21612;DHT22;47005;52.292;13.452;2023-02-15T03:15:41;4.30;99.90
21612;DHT22;47005;52.292;13.452;2023-02-15T03:18:44;4.30;99.90
21612;DHT22;47005;52.292;13.452;2023-02-15T03:21:21;4.30;99.90
21612;DHT22;47005;52.292;13.452;2023-02-15T03:23:59;4.30;99.90
21612;DHT22;47005;52.292;13.452;2023-02-15T03:26:27;4.20;99.90
21612;DHT22;47005;52.292;13.452;2023-02-15T03:28:55;4.20;99.90
21612;DHT22;47005;52.292;13.452;2023-02-15T03:31:26;4.20;99.90
21612;DHT22;47005;52.292;13.452;2023-02-15T03:34:06;4.20;99.90
21612;DHT22;47005;52.292;13.452;2023-02-15T03:36:51;4.20;99.90
21612;DHT22;47005;52.292;13.452;2023-02-15T03:40:08;4.20;99.90
21612;DHT22;47005;52.292;13.452;2023-02-15T03:42:19;4.10;99.90
21612;DHT22;47005;52.292;13.452;2023-02-15T03:47:20;4.10;99.90
21612;DHT22;47005;52.292;13.452;2023-02-15T03:50:03;4.10;99.90
21612;DHT22;47005;52.292;13.452;2023-02-15T03:52:51;4.10;99.90
21612;DHT22;47005;52.292;13.452;2023-02-15T03:55:17;4.10;99.90
21612;DHT22;47005;52.292;13.452;2023-02-15T03:57:43;4.10;99.90
21612;DHT22;47005;52.292;13.452;2023-02-15T04:00:27;4.00;99.90
21612;DHT22;47005;52.292;13.452;2023-02-15T04:03:32;4.00;99.90
21612;DHT22;47005;52.292;13.452;2023-02-15T04:06:00;4.00;99.90
21612;DHT22;47005;52.292;13.452;2023-02-15T04:08:27;4.00;99.90
21612;DHT22;47005;52.292;13.452;2023-02-15T04:11:13;4.00;99.90
21612;DHT22;47005;52.292;13.452;2023-02-15T04:13:38;4.00;99.90
21612;DHT22;47005;52.292;13.452;2023-02-15T04:16:04;3.90;99.90
21612;DHT22;47005;52.292;13.452;2023-02-15T04:21:20;3.90;99.90
21612;DHT22;47005;52.292;13.452;2023-02-15T04:24:04;3.90;99.90
21612;DHT22;47005;52.292;13.452;2023-02-15T04:26:49;3.90;99.90
21612;DHT22;47005;52.292;13.452;2023-02-15T04:29:19;3.90;99.90
21612;DHT22;47005;52.292;13.452;2023-02-15T04:31:45;3.90;99.90
21612;DHT22;47005;52.292;13.452;2023-02-15T04:34:10;3.90;99.90
21612;DHT22;47005;52.292;13.452;2023-02-15T04:36:37;3.90;99.90
21612;DHT22;47005;52.292;13.452;2023-02-15T04:39:04;3.90;99.90
21612;DHT22;47005;52.292;13.452;2023-02-15T04:41:30;3.90;99.90
21612;DHT22;47005;52.292;13.452;2023-02-15T04:43:55;3.90;99.90
21612;DHT22;47005;52.292;13.452;2023-02-15T04:46:21;3.90;99.90
21612;DHT22;47005;52.292;13.452;2023-02-15T04:48:47;3.90;99.90
21612;DHT22;47005;52.292;13.452;2023-02-15T04:51:13;3.90;99.90
21612;DHT22;47005;52.292;13.452;2023-02-15T04:53:38;3.90;99.90
21612;DHT22;47005;52.292;13.452;2023-02-15T04:56:04;3.90;99.90
21612;DHT22;47005;52.292;13.452;2023-02-15T04:58:30;3.90;99.90
21612;DHT22;47005;52.292;13.452;2023-02-15T05:00:56;3.90;99.90
21612;DHT22;47005;52.292;13.452;2023-02-15T05:03:22;3.90;99.90
21612;DHT22;47005;52.292;13.452;2023-02-15T05:05:48;3.90;99.90
21612;DHT22;47005;52.292;13.452;2023-02-15T05:08:13;3.90;99.90
21612;DHT22;47005;52.292;13.452;2023-02-15T05:10:39;3.90;99.90
21612;DHT22;47005;52.292;13.452;2023-02-15T05:13:05;3.90;99.90
21612;DHT22;47005;52.292;13.452;2023-02-15T05:15:30;3.90;99.90
21612;DHT22;47005;52.292;13.452;2023-02-15T05:17:56;3.90;99.90
21612;DHT22;47005;52.292;13.452;2023-02-15T05:20:22;3.90;99.90
21612;DHT22;47005;52.292;13.452;2023-02-15T05:22:47;3.90;99.90
21612;DHT22;47005;52.292;13.452;2023-02-15T05:25:13;3.80;99.90
21612;DHT22;47005;52.292;13.452;2023-02-15T05:27:57;3.90;99.90
21612;DHT22;47005;52.292;13.452;2023-02-15T05:30:41;3.80;99.90
21612;DHT22;47005;52.292;13.452;2023-02-15T05:33:08;3.80;99.90
21612;DHT22;47005;52.292;13.452;2023-02-15T05:35:34;3.80;99.90
21612;DHT22;47005;52.292;13.452;2023-02-15T05:38:00;3.80;99.90
21612;DHT22;47005;52.292;13.452;2023-02-15T05:40:26;3.80;99.90
21612;DHT22;47005;52.292;13.452;2023-02-15T05:42:51;3.80;99.90
21612;DHT22;47005;52.292;13.452;2023-02-15T05:45:17;3.70;99.90
21612;DHT22;47005;52.292;13.452;2023-02-15T05:47:43;3.70;99.90
21612;DHT22;47005;52.292;13.452;2023-02-15T05:50:09;3.80;99.90
21612;DHT22;47005;52.292;13.452;2023-02-15T05:52:36;3.70;99.90
21612;DHT22;47005;52.292;13.452;2023-02-15T05:55:02;3.70;99.90
21612;DHT22;47005;52.292;13.452;2023-02-15T05:57:28;3.70;99.90
21612;DHT22;47005;52.292;13.452;2023-02-15T05:59:54;3.70;99.90
21612;DHT22;47005;52.292;13.452;2023-02-15T06:02:20;3.70;99.90
21612;DHT22;47005;52.292;13.452;2023-02-15T06:04:45;3.60;99.90
21612;DHT22;47005;52.292;13.452;2023-02-15T06:07:11;3.60;99.90
21612;DHT22;47005;52.292;13.452;2023-02-15T06:09:36;3.50;99.90
21612;DHT22;47005;52.292;13.452;2023-02-15T06:12:02;3.60;99.90
21612;DHT22;47005;52.292;13.452;2023-02-15T06:14:28;3.60;99.90
21612;DHT22;47005;52.292;13.452;2023-02-15T06:16:53;3.60;99.90
21612;DHT22;47005;52.292;13.452;2023-02-15T06:19:19;3.60;99.90
21612;DHT22;47005;52.292;13.452;2023-02-15T06:21:46;3.60;99.90
21612;DHT22;47005;52.292;13.452;2023-02-15T06:24:12;3.50;99.90
21612;DHT22;47005;52.292;13.452;2023-02-15T06:26:38;3.50;99.90
21612;DHT22;47005;52.292;13.452;2023-02-15T06:29:03;3.50;99.90
21612;DHT22;47005;52.292;13.452;2023-02-15T06:31:29;3.60;99.90
21612;DHT22;47005;52.292;13.452;2023-02-15T06:33:55;3.50;99.90
21612;DHT22;47005;52.292;13.452;2023-02-15T06:36:30;3.50;99.90
21612;DHT22;47005;52.292;13.452;2023-02-15T06:38:56;3.50;99.90
21612;DHT22;47005;52.292;13.452;2023-02-15T06:41:22;3.50;99.90
21612;DHT22;47005;52.292;13.452;2023-02-15T06:43:48;3.50;99.90
21612;DHT22;47005;52.292;13.452;2023-02-15T06:46:14;3.60;99.90
21612;DHT22;47005;52.292;13.452;2023-02-15T06:48:39;3.50;99.90
21612;DHT22;47005;52.292;13.452;2023-02-15T06:51:05;3.50;99.90
21612;DHT22;47005;52.292;13.452;2023-02-15T06:53:31;3.50;99.90
21612;DHT22;47005;52.292;13.452;2023-02-15T06:56:04;3.50;99.90
21612;DHT22;47005;52.292;13.452;2023-02-15T06:58:32;3.50;99.90
21612;DHT22;47005;52.292;13.452;2023-02-15T07:00:58;3.50;99.90
21612;DHT22;47005;52.292;13.452;2023-02-15T07:03:24;3.60;99.90
21612;DHT22;47005;52.292;13.452;2023-02-15T07:05:54;3.60;99.90
21612;DHT22;47005;52.292;13.452;2023-02-15T07:08:21;3.60;99.90
21612;DHT22;47005;52.292;13.452;2023-02-15T07:10:48;3.50;99.90
21612;DHT22;47005;52.292;13.452;2023-02-15T07:13:14;3.60;99.90
21612;DHT22;47005;52.292;13.452;2023-02-15T07:15:40;3.50;99.90
21612;DHT22;47005;52.292;13.452;2023-02-15T07:18:05;3.50;99.90
21612;DHT22;47005;52.292;13.452;2023-02-15T07:20:31;3.50;99.90
21612;DHT22;47005;52.292;13.452;2023-02-15T07:22:58;3.50;99.90
21612;DHT22;47005;52.292;13.452;2023-02-15T07:25:24;3.50;99.90
21612;DHT22;47005;52.292;13.452;2023-02-15T07:28:04;3.60;99.90
21612;DHT22;47005;52.292;13.452;2023-02-15T07:30:30;3.60;99.90
21612;DHT22;47005;52.292;13.452;2023-02-15T07:32:57;3.60;99.90
21612;DHT22;47005;52.292;13.452;2023-02-15T07:35:55;3.60;99.90
21612;DHT22;47005;52.292;13.452;2023-02-15T07:38:23;3.60;99.90
21612;DHT22;47005;52.292;13.452;2023-02-15T07:40:50;3.60;99.90
21612;DHT22;47005;52.292;13.452;2023-02-15T07:43:16;3.60;99.90
21612;DHT22;47005;52.292;13.452;2023-02-15T07:45:42;3.60;99.90
21612;DHT22;47005;52.292;13.452;2023-02-15T07:48:08;3.60;99.90
21612;DHT22;47005;52.292;13.452;2023-02-15T07:50:34;3.60;99.90
21612;DHT22;47005;52.292;13.452;2023-02-15T07:53:02;3.60;99.90
21612;DHT22;47005;52.292;13.452;2023-02-15T07:55:28;3.70;99.90
21612;DHT22;47005;52.292;13.452;2023-02-15T07:57:55;3.70;99.90
21612;DHT22;47005;52.292;13.452;2023-02-15T08:00:21;3.70;99.90
21612;DHT22;47005;52.292;13.452;2023-02-15T08:02:54;3.70;99.90
21612;DHT22;47005;52.292;13.452;2023-02-15T08:05:43;3.70;99.90
21612;DHT22;47005;52.292;13.452;2023-02-15T08:08:10;3.70;99.90
21612;DHT22;47005;52.292;13.452;2023-02-15T08:11:21;3.70;99.90
21612;DHT22;47005;52.292;13.452;2023-02-15T08:13:56;3.70;99.90
21612;DHT22;47005;52.292;13.452;2023-02-15T08:16:31;3.70;99.90
21612;DHT22;47005;52.292;13.452;2023-02-15T08:18:59;3.70;99.90
21612;DHT22;47005;52.292;13.452;2023-02-15T08:21:27;3.80;99.90
21612;DHT22;47005;52.292;13.452;2023-02-15T08:23:53;3.80;99.90
21612;DHT22;47005;52.292;13.452;2023-02-15T08:26:20;3.80;99.90
21612;DHT22;47005;52.292;13.452;2023-02-15T08:28:45;3.80;99.90
21612;DHT22;47005;52.292;13.452;2023-02-15T08:31:13;3.80;99.90
21612;DHT22;47005;52.292;13.452;2023-02-15T08:33:39;3.80;99.90
21612;DHT22;47005;52.292;13.452;2023-02-15T08:36:08;3.90;99.90
21612;DHT22;47005;52.292;13.452;2023-02-15T08:38:34;3.80;99.90
21612;DHT22;47005;52.292;13.452;2023-02-15T08:43:42;3.90;99.90
21612;DHT22;47005;52.292;13.452;2023-02-15T08:46:10;3.90;99.90
21612;DHT22;47005;52.292;13.452;2023-02-15T08:48:36;3.90;99.90
21612;DHT22;47005;52.292;13.452;2023-02-15T08:51:13;3.90;99.90
21612;DHT22;47005;52.292;13.452;2023-02-15T08:53:40;3.90;99.90
21612;DHT22;47005;52.292;13.452;2023-02-15T08:56:07;4.00;99.90
21612;DHT22;47005;52.292;13.452;2023-02-15T08:58:34;4.00;99.90
21612;DHT22;47005;52.292;13.452;2023-02-15T09:01:01;4.00;99.90
21612;DHT22;47005;52.292;13.452;2023-02-15T09:03:29;4.00;99.90
21612;DHT22;47005;52.292;13.452;2023-02-15T09:05:59;4.10;99.90
21612;DHT22;47005;52.292;13.452;2023-02-15T09:08:25;4.10;99.90
21612;DHT22;47005;52.292;13.452;2023-02-15T09:10:51;4.10;99.90
21612;DHT22;47005;52.292;13.452;2023-02-15T09:13:17;4.10;99.90
21612;DHT22;47005;52.292;13.452;2023-02-15T09:15:42;4.20;99.90
21612;DHT22;47005;52.292;13.452;2023-02-15T09:18:08;4.20;99.90
21612;DHT22;47005;52.292;13.452;2023-02-15T09:20:37;4.20;99.90
21612;DHT22;47005;52.292;13.452;2023-02-15T09:23:02;4.20;99.90
21612;DHT22;47005;52.292;13.452;2023-02-15T09:25:28;4.20;99.90
21612;DHT22;47005;52.292;13.452;2023-02-15T09:27:54;4.20;99.90
21612;DHT22;47005;52.292;13.452;2023-02-15T09:30:20;4.30;99.90
21612;DHT22;47005;52.292;13.452;2023-02-15T09:32:45;4.30;99.90
21612;DHT22;47005;52.292;13.452;2023-02-15T09:35:12;4.30;99.90
21612;DHT22;47005;52.292;13.452;2023-02-15T09:37:37;4.30;99.90
21612;DHT22;47005;52.292;13.452;2023-02-15T09:40:04;4.40;99.90
21612;DHT22;47005;52.292;13.452;2023-02-15T09:47:59;4.50;99.90
21612;DHT22;47005;52.292;13.452;2023-02-15T09:53:40;4.50;99.90
21612;DHT22;47005;52.292;13.452;2023-02-15T09:56:15;4.60;99.90
21612;DHT22;47005;52.292;13.452;2023-02-15T09:58:57;4.60;99.90
21612;DHT22;47005;52.292;13.452;2023-02-15T10:12:40;4.80;99.90
21612;DHT22;47005;52.292;13.452;2023-02-15T10:28:57;5.00;99.90
21612;DHT22;47005;52.292;13.452;2023-02-15T10:34:39;5.00;99.90
21612;DHT22;47005;52.292;13.452;2023-02-15T10:40:25;5.10;99.90
21612;DHT22;47005;52.292;13.452;2023-02-15T10:51:19;5.20;99.90
21612;DHT22;47005;52.292;13.452;2023-02-15T10:57:04;5.20;99.90
21612;DHT22;47005;52.292;13.452;2023-02-15T11:00:14;5.20;99.90
21612;DHT22;47005;52.292;13.452;2023-02-15T11:05:29;5.30;99.90
21612;DHT22;47005;52.292;13.452;2023-02-15T11:07:59;5.30;99.90
21612;DHT22;47005;52.292;13.452;2023-02-15T11:10:51;5.30;99.90
21612;DHT22;47005;52.292;13.452;2023-02-15T11:13:20;5.30;99.90
21612;DHT22;47005;52.292;13.452;2023-02-15T11:21:27;5.30;99.90
21612;DHT22;47005;52.292;13.452;2023-02-15T11:23:54;5.40;99.90
21612;DHT22;47005;52.292;13.452;2023-02-15T11:29:38;5.50;99.90
21612;DHT22;47005;52.292;13.452;2023-02-15T11:32:26;5.50;99.90
21612;DHT22;47005;52.292;13.452;2023-02-15T11:37:53;5.50;99.90
21612;DHT22;47005;52.292;13.452;2023-02-15T11:40:55;5.60;99.90
21612;DHT22;47005;52.292;13.452;2023-02-15T11:45:50;5.70;99.90
21612;DHT22;47005;52.292;13.452;2023-02-15T11:48:16;5.70;99.90
21612;DHT22;47005;52.292;13.452;2023-02-15T11:50:43;5.70;99.90
21612;DHT22;47005;52.292;13.452;2023-02-15T11:53:13;5.80;99.90
21612;DHT22;47005;52.292;13.452;2023-02-15T11:55:39;5.80;99.90
21612;DHT22;47005;52.292;13.452;2023-02-15T12:03:53;6.00;99.90
21612;DHT22;47005;52.292;13.452;2023-02-15T12:06:25;6.10;99.90
21612;DHT22;47005;52.292;13.452;2023-02-15T12:11:38;6.10;99.90
21612;DHT22;47005;52.292;13.452;2023-02-15T12:14:11;6.20;99.90
21612;DHT22;47005;52.292;13.452;2023-02-15T12:16:46;6.20;99.90
21612;DHT22;47005;52.292;13.452;2023-02-15T12:21:59;6.30;99.90
21612;DHT22;47005;52.292;13.452;2023-02-15T12:24:29;6.40;99.90
21612;DHT22;47005;52.292;13.452;2023-02-15T12:29:27;6.50;99.90
21612;DHT22;47005;52.292;13.452;2023-02-15T12:31:55;6.60;99.90
21612;DHT22;47005;52.292;13.452;2023-02-15T12:34:30;6.60;99.90
21612;DHT22;47005;52.292;13.452;2023-02-15T12:37:01;6.60;99.90
21612;DHT22;47005;52.292;13.452;2023-02-15T12:39:31;6.70;99.90
21612;DHT22;47005;52.292;13.452;2023-02-15T12:42:16;6.70;99.90
21612;DHT22;47005;52.292;13.452;2023-02-15T12:45:50;6.80;99.90
21612;DHT22;47005;52.292;13.452;2023-02-15T12:50:39;7.00;99.90
21612;DHT22;47005;52.292;13.452;2023-02-15T12:53:32;7.00;99.90
21612;DHT22;47005;52.292;13.452;2023-02-15T12:56:00;7.10;99.90
21612;DHT22;47005;52.292;13.452;2023-02-15T12:58:34;7.10;99.90
21612;DHT22;47005;52.292;13.452;2023-02-15T13:03:36;7.30;99.90
21612;DHT22;47005;52.292;13.452;2023-02-15T13:06:04;7.30;99.90
21612;DHT22;47005;52.292;13.452;2023-02-15T13:08:39;7.40;99.90
21612;DHT22;47005;52.292;13.452;2023-02-15T13:11:11;7.40;99.90
21612;DHT22;47005;52.292;13.452;2023-02-15T13:13:59;7.50;99.90
21612;DHT22;47005;52.292;13.452;2023-02-15T13:16:38;7.50;99.90
21612;DHT22;47005;52.292;13.452;2023-02-15T13:19:21;7.60;99.90
21612;DHT22;47005;52.292;13.452;2023-02-15T13:21:51;7.60;99.90
21612;DHT22;47005;52.292;13.452;2023-02-15T13:24:50;7.60;99.90
21612;DHT22;47005;52.292;13.452;2023-02-15T13:27:20;7.70;99.90
21612;DHT22;47005;52.292;13.452;2023-02-15T13:29:55;7.80;99.90
21612;DHT22;47005;52.292;13.452;2023-02-15T13:32:37;7.80;99.90
21612;DHT22;47005;52.292;13.452;2023-02-15T13:35:10;7.90;99.90
21612;DHT22;47005;52.292;13.452;2023-02-15T13:40:42;8.00;99.90
21612;DHT22;47005;52.292;13.452;2023-02-15T13:44:18;8.10;99.90
21612;DHT22;47005;52.292;13.452;2023-02-15T13:46:23;8.30;99.90
21612;DHT22;47005;52.292;13.452;2023-02-15T13:54:43;8.60;99.90
21612;DHT22;47005;52.292;13.452;2023-02-15T14:10:29;8.90;99.90
21612;DHT22;47005;52.292;13.452;2023-02-15T14:15:50;8.90;99.90
21612;DHT22;47005;52.292;13.452;2023-02-15T14:30:16;9.10;99.90
21612;DHT22;47005;52.292;13.452;2023-02-15T14:32:51;9.20;99.90
21612;DHT22;47005;52.292;13.452;2023-02-15T14:35:24;9.20;99.90
21612;DHT22;47005;52.292;13.452;2023-02-15T14:46:35;9.70;99.90
21612;DHT22;47005;52.292;13.452;2023-02-15T14:56:43;10.00;99.90
21612;DHT22;47005;52.292;13.452;2023-02-15T14:59:20;10.00;99.90
21612;DHT22;47005;52.292;13.452;2023-02-15T15:01:57;10.00;99.90
21612;DHT22;47005;52.292;13.452;2023-02-15T15:07:03;10.00;99.90
21612;DHT22;47005;52.292;13.452;2023-02-15T15:09:35;10.00;99.90
21612;DHT22;47005;52.292;13.452;2023-02-15T15:14:48;9.90;99.90
21612;DHT22;47005;52.292;13.452;2023-02-15T15:20:03;9.80;99.90
21612;DHT22;47005;52.292;13.452;2023-02-15T15:22:31;9.80;99.90
21612;DHT22;47005;52.292;13.452;2023-02-15T15:24:58;9.70;99.90
21612;DHT22;47005;52.292;13.452;2023-02-15T15:32:52;9.60;99.90
21612;DHT22;47005;52.292;13.452;2023-02-15T15:46:53;9.40;99.90
21612;DHT22;47005;52.292;13.452;2023-02-15T15:49:28;9.30;99.90
21612;DHT22;47005;52.292;13.452;2023-02-15T15:52:00;9.30;99.90
21612;DHT22;47005;52.292;13.452;2023-02-15T15:54:27;9.20;99.90
21612;DHT22;47005;52.292;13.452;2023-02-15T15:56:59;9.20;99.90
21612;DHT22;47005;52.292;13.452;2023-02-15T15:59:35;9.10;99.90
21612;DHT22;47005;52.292;13.452;2023-02-15T16:02:14;9.10;99.90
21612;DHT22;47005;52.292;13.452;2023-02-15T16:04:44;9.00;99.90
21612;DHT22;47005;52.292;13.452;2023-02-15T16:10:38;8.90;99.90
21612;DHT22;47005;52.292;13.452;2023-02-15T16:12:39;8.90;99.90
21612;DHT22;47005;52.292;13.452;2023-02-15T16:15:20;8.80;99.90
21612;DHT22;47005;52.292;13.452;2023-02-15T16:17:51;8.80;99.90
21612;DHT22;47005;52.292;13.452;2023-02-15T16:20:23;8.70;99.90
21612;DHT22;47005;52.292;13.452;2023-02-15T16:28:32;8.60;99.90
21612;DHT22;47005;52.292;13.452;2023-02-15T16:31:13;8.50;99.90
21612;DHT22;47005;52.292;13.452;2023-02-15T16:33:40;8.50;99.90
21612;DHT22;47005;52.292;13.452;2023-02-15T16:36:24;8.50;99.90
21612;DHT22;47005;52.292;13.452;2023-02-15T16:43:44;8.40;99.90
21612;DHT22;47005;52.292;13.452;2023-02-15T16:46:14;8.40;99.90
21612;DHT22;47005;52.292;13.452;2023-02-15T16:48:44;8.30;99.90
21612;DHT22;47005;52.292;13.452;2023-02-15T16:51:19;8.30;99.90
21612;DHT22;47005;52.292;13.452;2023-02-15T16:53:47;8.20;99.90
21612;DHT22;47005;52.292;13.452;2023-02-15T16:56:29;8.20;99.90
21612;DHT22;47005;52.292;13.452;2023-02-15T16:58:59;8.20;99.90
21612;DHT22;47005;52.292;13.452;2023-02-15T17:01:31;8.10;99.90
21612;DHT22;47005;52.292;13.452;2023-02-15T17:07:18;8.10;99.90
21612;DHT22;47005;52.292;13.452;2023-02-15T17:12:45;8.00;99.90
21612;DHT22;47005;52.292;13.452;2023-02-15T17:15:34;8.00;99.90
21612;DHT22;47005;52.292;13.452;2023-02-15T17:18:16;8.00;99.90
21612;DHT22;47005;52.292;13.452;2023-02-15T17:20:44;7.90;99.90
21612;DHT22;47005;52.292;13.452;2023-02-15T17:23:30;7.80;99.90
21612;DHT22;47005;52.292;13.452;2023-02-15T17:25:57;7.90;99.90
21612;DHT22;47005;52.292;13.452;2023-02-15T17:28:26;7.80;99.90
21612;DHT22;47005;52.292;13.452;2023-02-15T17:30:54;7.80;99.90
21612;DHT22;47005;52.292;13.452;2023-02-15T17:38:30;7.70;99.90
21612;DHT22;47005;52.292;13.452;2023-02-15T17:40:56;7.70;99.90
21612;DHT22;47005;52.292;13.452;2023-02-15T17:43:26;7.60;99.90
21612;DHT22;47005;52.292;13.452;2023-02-15T17:45:52;7.60;99.90
21612;DHT22;47005;52.292;13.452;2023-02-15T17:48:22;7.60;99.90
21612;DHT22;47005;52.292;13.452;2023-02-15T17:50:48;7.60;99.90
21612;DHT22;47005;52.292;13.452;2023-02-15T17:53:17;7.50;99.90
21612;DHT22;47005;52.292;13.452;2023-02-15T17:55:43;7.50;99.90
21612;DHT22;47005;52.292;13.452;2023-02-15T17:58:14;7.50;99.90
21612;DHT22;47005;52.292;13.452;2023-02-15T18:00:45;7.40;99.90
21612;DHT22;47005;52.292;13.452;2023-02-15T18:03:38;7.40;99.90
21612;DHT22;47005;52.292;13.452;2023-02-15T18:06:23;7.40;99.90
21612;DHT22;47005;52.292;13.452;2023-02-15T18:09:11;7.40;99.90
21612;DHT22;47005;52.292;13.452;2023-02-15T18:11:56;7.40;99.90
21612;DHT22;47005;52.292;13.452;2023-02-15T18:14:22;7.30;99.90
21612;DHT22;47005;52.292;13.452;2023-02-15T18:16:48;7.30;99.90
21612;DHT22;47005;52.292;13.452;2023-02-15T18:19:19;7.30;99.90
21612;DHT22;47005;52.292;13.452;2023-02-15T18:21:46;7.20;99.90
21612;DHT22;47005;52.292;13.452;2023-02-15T18:24:19;7.20;99.90
21612;DHT22;47005;52.292;13.452;2023-02-15T18:26:46;7.20;99.90
21612;DHT22;47005;52.292;13.452;2023-02-15T18:29:12;7.10;99.90
21612;DHT22;47005;52.292;13.452;2023-02-15T18:31:39;7.10;99.90
21612;DHT22;47005;52.292;13.452;2023-02-15T18:34:06;7.20;99.90
21612;DHT22;47005;52.292;13.452;2023-02-15T18:36:41;7.10;99.90
21612;DHT22;47005;52.292;13.452;2023-02-15T18:39:44;7.10;99.90
21612;DHT22;47005;52.292;13.452;2023-02-15T18:44:49;7.00;99.90
21612;DHT22;47005;52.292;13.452;2023-02-15T18:47:17;7.00;99.90
21612;DHT22;47005;52.292;13.452;2023-02-15T18:49:43;7.00;99.90
21612;DHT22;47005;52.292;13.452;2023-02-15T18:52:17;7.00;99.90
21612;DHT22;47005;52.292;13.452;2023-02-15T18:54:44;6.90;99.90
21612;DHT22;47005;52.292;13.452;2023-02-15T18:57:12;7.00;99.90
21612;DHT22;47005;52.292;13.452;2023-02-15T18:59:39;6.90;99.90
21612;DHT22;47005;52.292;13.452;2023-02-15T19:02:15;6.90;99.90
21612;DHT22;47005;52.292;13.452;2023-02-15T19:04:42;6.90;99.90
21612;DHT22;47005;52.292;13.452;2023-02-15T19:07:20;6.80;99.90
21612;DHT22;47005;52.292;13.452;2023-02-15T19:09:52;6.80;99.90
21612;DHT22;47005;52.292;13.452;2023-02-15T19:12:19;6.80;99.90
21612;DHT22;47005;52.292;13.452;2023-02-15T19:14:45;6.80;99.90
21612;DHT22;47005;52.292;13.452;2023-02-15T19:17:19;6.80;99.90
21612;DHT22;47005;52.292;13.452;2023-02-15T19:19:45;6.70;99.90
21612;DHT22;47005;52.292;13.452;2023-02-15T19:22:13;6.80;99.90
21612;DHT22;47005;52.292;13.452;2023-02-15T19:24:41;6.70;99.90
21612;DHT22;47005;52.292;13.452;2023-02-15T19:27:30;6.70;99.90
21612;DHT22;47005;52.292;13.452;2023-02-15T19:30:02;6.70;99.90
21612;DHT22;47005;52.292;13.452;2023-02-15T19:32:28;6.60;99.90
21612;DHT22;47005;52.292;13.452;2023-02-15T19:34:55;6.60;99.90
21612;DHT22;47005;52.292;13.452;2023-02-15T19:37:30;6.60;99.90
21612;DHT22;47005;52.292;13.452;2023-02-15T19:39:58;6.60;99.90
21612;DHT22;47005;52.292;13.452;2023-02-15T19:42:26;6.60;99.90
21612;DHT22;47005;52.292;13.452;2023-02-15T19:44:51;6.50;99.90
21612;DHT22;47005;52.292;13.452;2023-02-15T19:47:19;6.50;99.90
21612;DHT22;47005;52.292;13.452;2023-02-15T19:49:44;6.50;99.90